createdAt,value
2018-03-07T00:01:51.817Z,9.50
2018-03-07T00:04:20.052Z,9.50
2018-03-07T00:06:49.197Z,9.50
2018-03-07T00:09:17.455Z,9.60
2018-03-07T00:11:46.453Z,9.60
2018-03-07T00:14:15.182Z,9.50
2018-03-07T00:16:43.428Z,9.50
2018-03-07T00:19:11.675Z,9.50
2018-03-07T00:21:40.023Z,9.50
2018-03-07T00:24:09.034Z,9.50
2018-03-07T00:26:38.051Z,9.40
2018-03-07T00:29:08.627Z,9.50
2018-03-07T00:31:37.268Z,9.50
2018-03-07T00:34:05.502Z,9.50
2018-03-07T00:36:34.804Z,9.50
2018-03-07T00:41:40.397Z,9.60
2018-03-07T00:44:08.921Z,9.60
2018-03-07T00:46:37.157Z,9.70
2018-03-07T00:49:06.223Z,9.70
2018-03-07T00:51:34.457Z,9.70
2018-03-07T00:54:02.693Z,9.70
2018-03-07T00:56:32.122Z,9.70
2018-03-07T00:59:01.128Z,9.70
2018-03-07T01:01:29.372Z,9.70
2018-03-07T01:03:57.691Z,9.70
2018-03-07T01:06:25.933Z,9.70
2018-03-07T01:08:54.160Z,9.80
2018-03-07T01:11:23.804Z,9.80
2018-03-07T01:13:52.054Z,9.80
2018-03-07T01:16:21.436Z,9.80
2018-03-07T01:18:49.721Z,9.80
2018-03-07T01:21:18.720Z,9.80
2018-03-07T01:23:47.738Z,9.80
2018-03-07T01:26:16.136Z,9.80
2018-03-07T01:28:44.383Z,9.80
2018-03-07T01:31:12.622Z,9.80
2018-03-07T01:33:41.168Z,9.80
2018-03-07T01:36:10.179Z,9.80
2018-03-07T01:38:39.195Z,9.70
2018-03-07T01:41:08.687Z,9.70
2018-03-07T01:43:36.921Z,9.70
2018-03-07T01:46:11.598Z,9.70
2018-03-07T01:48:39.852Z,9.60
2018-03-07T01:51:08.103Z,9.60
2018-03-07T01:53:37.338Z,9.60
2018-03-07T01:56:05.572Z,9.50
2018-03-07T01:58:34.223Z,9.50
2018-03-07T02:01:03.873Z,9.40
2018-03-07T02:03:32.122Z,9.30
2018-03-07T02:06:00.368Z,9.30
2018-03-07T02:08:29.892Z,9.20
2018-03-07T02:10:58.534Z,9.20
2018-03-07T02:13:26.780Z,9.10
2018-03-07T02:18:32.402Z,9.00
2018-03-07T02:21:00.636Z,9.00
2018-03-07T02:23:28.896Z,8.90
2018-03-07T02:25:57.548Z,8.90
2018-03-07T02:28:26.558Z,9.00
2018-03-07T02:30:55.571Z,8.90
2018-03-07T02:33:28.806Z,8.90
2018-03-07T02:35:57.055Z,8.90
2018-03-07T02:38:25.294Z,8.90
2018-03-07T02:40:54.700Z,8.90
2018-03-07T02:43:23.356Z,8.90
2018-03-07T02:45:51.610Z,8.90
2018-03-07T02:48:24.185Z,8.90
2018-03-07T02:50:52.424Z,8.80
2018-03-07T02:53:20.676Z,8.80
2018-03-07T02:55:49.031Z,8.70
2018-03-07T02:58:18.790Z,8.70
2018-03-07T03:00:48.163Z,8.70
2018-03-07T03:03:16.560Z,8.70
2018-03-07T03:05:44.803Z,8.70
2018-03-07T03:10:44.131Z,8.60
2018-03-07T03:13:12.375Z,8.60
2018-03-07T03:15:41.377Z,8.60
2018-03-07T03:18:13.602Z,8.60
2018-03-07T03:20:42.986Z,8.50
2018-03-07T03:23:11.239Z,8.50
2018-03-07T03:25:42.203Z,8.50
2018-03-07T03:28:11.197Z,8.50
2018-03-07T03:30:39.429Z,8.40
2018-03-07T03:33:07.804Z,8.40
2018-03-07T03:35:36.037Z,8.40
2018-03-07T03:38:04.270Z,8.40
2018-03-07T03:40:34.064Z,8.40
2018-03-07T03:43:03.072Z,8.40
2018-03-07T03:45:32.072Z,8.50
2018-03-07T03:48:00.708Z,8.40
2018-03-07T03:50:30.381Z,8.40
2018-03-07T03:52:58.616Z,8.40
2018-03-07T03:55:27.156Z,8.30
2018-03-07T03:57:56.520Z,8.30
2018-03-07T04:00:24.752Z,8.30
2018-03-07T04:02:53.597Z,8.30
2018-03-07T04:07:51.311Z,8.30
2018-03-07T04:10:20.961Z,8.20
2018-03-07T04:15:19.804Z,8.20
2018-03-07T04:17:49.324Z,8.10
2018-03-07T04:20:17.560Z,8.00
2018-03-07T04:22:45.792Z,7.90
2018-03-07T04:25:14.256Z,7.90
2018-03-07T04:27:43.993Z,7.80
2018-03-07T04:30:12.993Z,7.80
2018-03-07T04:32:43.775Z,7.80
2018-03-07T04:35:12.401Z,7.70
2018-03-07T04:37:41.400Z,7.70
2018-03-07T04:40:11.997Z,7.70
2018-03-07T04:42:40.624Z,7.60
2018-03-07T04:45:08.856Z,7.50
2018-03-07T04:47:38.013Z,7.50
2018-03-07T04:50:07.008Z,7.50
2018-03-07T04:52:39.123Z,7.50
2018-03-07T04:55:07.356Z,7.40
2018-03-07T04:57:35.590Z,7.40
2018-03-07T05:00:05.475Z,7.40
2018-03-07T05:02:33.708Z,7.40
2018-03-07T05:05:01.948Z,7.40
2018-03-07T05:07:30.548Z,7.30
2018-03-07T05:09:59.919Z,7.30
2018-03-07T05:12:28.150Z,7.30
2018-03-07T05:14:57.441Z,7.30
2018-03-07T05:17:26.824Z,7.30
2018-03-07T05:19:56.188Z,7.20
2018-03-07T05:22:24.663Z,7.20
2018-03-07T05:24:54.405Z,7.10
2018-03-07T05:27:23.405Z,7.10
2018-03-07T05:29:52.456Z,7.10
2018-03-07T05:32:20.692Z,7.10
2018-03-07T05:34:48.924Z,7.10
2018-03-07T05:37:18.009Z,7.10
2018-03-07T05:39:46.244Z,7.10
2018-03-07T05:42:15.243Z,7.10
2018-03-07T05:44:43.695Z,7.10
2018-03-07T05:47:13.415Z,7.20
2018-03-07T05:49:42.411Z,7.20
2018-03-07T05:52:10.833Z,7.30
2018-03-07T05:54:42.152Z,7.30
2018-03-07T05:57:10.386Z,7.30
2018-03-07T05:59:38.760Z,7.40
2018-03-07T06:02:06.987Z,7.50
2018-03-07T06:04:35.226Z,7.50
2018-03-07T06:07:05.689Z,7.60
2018-03-07T06:12:04.528Z,7.80
2018-03-07T06:14:34.581Z,7.90
2018-03-07T06:17:02.812Z,7.90
2018-03-07T06:19:31.058Z,7.90
2018-03-07T06:24:33.728Z,8.00
2018-03-07T06:29:31.426Z,7.90
2018-03-07T06:32:00.604Z,7.90
2018-03-07T06:34:29.603Z,7.90
2018-03-07T06:36:57.836Z,7.90
2018-03-07T06:39:27.090Z,7.90
2018-03-07T06:41:55.725Z,8.00
2018-03-07T06:44:24.721Z,8.00
2018-03-07T06:46:53.164Z,8.20
2018-03-07T06:49:22.160Z,8.40
2018-03-07T06:51:50.392Z,8.60
2018-03-07T06:54:19.639Z,8.70
2018-03-07T06:56:48.860Z,8.80
2018-03-07T06:59:17.094Z,9.00
2018-03-07T07:01:45.500Z,9.10
2018-03-07T07:04:13.979Z,9.30
2018-03-07T07:06:42.952Z,9.40
2018-03-07T07:09:15.208Z,9.40
2018-03-07T07:11:43.449Z,9.50
2018-03-07T07:14:12.450Z,9.50
2018-03-07T07:16:41.296Z,9.60
2018-03-07T07:19:09.528Z,9.60
2018-03-07T07:21:37.759Z,9.60
2018-03-07T07:24:06.132Z,9.60
2018-03-07T07:29:03.833Z,9.60
2018-03-07T07:31:32.446Z,9.60
2018-03-07T07:34:00.676Z,9.60
2018-03-07T07:36:28.917Z,9.70
2018-03-07T07:38:57.622Z,9.70
2018-03-07T07:41:26.625Z,9.90
2018-03-07T07:43:54.864Z,10.00
2018-03-07T07:46:24.448Z,10.10
2018-03-07T07:48:52.688Z,10.20
2018-03-07T07:51:21.709Z,10.30
2018-03-07T07:53:51.216Z,10.30
2018-03-07T07:56:19.461Z,10.40
2018-03-07T07:58:47.917Z,10.40
2018-03-07T08:01:16.376Z,10.50
2018-03-07T08:03:45.380Z,10.50
2018-03-07T08:06:14.384Z,10.70
2018-03-07T08:08:43.477Z,10.80
2018-03-07T08:11:11.723Z,10.90
2018-03-07T08:13:40.730Z,11.10
2018-03-07T08:19:52.478Z,11.60
2018-03-07T08:22:20.720Z,11.80
2018-03-07T08:24:50.460Z,12.00
2018-03-07T08:27:20.388Z,12.30
2018-03-07T08:29:48.624Z,12.60
2018-03-07T08:32:16.857Z,12.90
2018-03-07T08:34:45.240Z,13.20
2018-03-07T08:37:13.475Z,13.50
2018-03-07T08:39:42.724Z,13.80
2018-03-07T08:42:11.829Z,14.10
2018-03-07T08:44:40.069Z,14.40
2018-03-07T08:49:37.901Z,14.90
2018-03-07T08:52:06.904Z,14.90
2018-03-07T08:54:35.540Z,15.40
2018-03-07T08:57:04.428Z,16.20
2018-03-07T08:59:35.220Z,16.90
2018-03-07T09:02:04.244Z,17.60
2018-03-07T09:04:36.036Z,17.70
2018-03-07T09:07:04.277Z,18.00
2018-03-07T09:09:32.520Z,18.50
2018-03-07T09:12:00.909Z,18.80
2018-03-07T09:14:29.917Z,19.00
2018-03-07T09:16:58.548Z,19.00
2018-03-07T09:19:27.573Z,19.40
2018-03-07T09:21:55.812Z,20.00
2018-03-07T09:24:24.044Z,20.60
2018-03-07T09:26:53.460Z,21.60
2018-03-07T09:29:21.696Z,22.30
2018-03-07T09:31:51.440Z,23.10
2018-03-07T09:34:24.360Z,23.40
2018-03-07T09:36:52.597Z,23.50
2018-03-07T09:39:21.608Z,22.80
2018-03-07T09:41:50.380Z,22.10
2018-03-07T09:46:48.075Z,21.90
2018-03-07T09:49:17.529Z,21.30
2018-03-07T09:51:46.166Z,20.00
2018-03-07T09:54:14.393Z,19.00
2018-03-07T09:56:43.581Z,18.90
2018-03-07T09:59:12.581Z,18.90
2018-03-07T10:01:43.864Z,18.60
2018-03-07T10:04:12.874Z,18.70
2018-03-07T10:06:41.879Z,19.00
2018-03-07T10:09:10.269Z,19.60
2018-03-07T10:11:40.012Z,20.10
2018-03-07T10:14:08.261Z,20.60
2018-03-07T10:16:39.874Z,21.30
2018-03-07T10:19:08.077Z,21.60
2018-03-07T10:21:36.312Z,22.20
2018-03-07T10:24:05.829Z,23.00
2018-03-07T10:26:34.069Z,23.70
2018-03-07T10:29:02.313Z,24.10
2018-03-07T10:31:34.145Z,23.30
2018-03-07T10:34:03.144Z,22.70
2018-03-07T10:36:32.148Z,22.40
2018-03-07T10:39:00.693Z,22.00
2018-03-07T10:41:30.434Z,21.00
2018-03-07T10:43:58.676Z,19.90
2018-03-07T10:46:27.140Z,18.80
2018-03-07T10:48:55.378Z,17.70
2018-03-07T10:51:23.611Z,16.80
2018-03-07T10:53:52.488Z,16.20
2018-03-07T10:56:21.119Z,15.70
2018-03-07T10:58:49.364Z,15.10
2018-03-07T11:03:57.028Z,14.10
2018-03-07T11:06:25.649Z,13.70
2018-03-07T11:08:53.884Z,13.40
2018-03-07T11:11:22.264Z,13.10
2018-03-07T11:13:50.541Z,12.90
2018-03-07T11:16:18.727Z,12.80
2018-03-07T11:18:49.120Z,12.70
2018-03-07T11:21:17.362Z,12.70
2018-03-07T11:23:46.487Z,12.70
2018-03-07T11:26:17.713Z,12.70
2018-03-07T11:28:46.713Z,12.70
2018-03-07T11:31:15.324Z,12.70
2018-03-07T11:33:45.613Z,12.70
2018-03-07T11:36:14.982Z,12.60
2018-03-07T11:38:43.992Z,12.60
2018-03-07T11:41:13.725Z,12.50
2018-03-07T11:43:41.959Z,12.40
2018-03-07T11:46:10.197Z,12.40
2018-03-07T11:51:13.250Z,11.90
2018-03-07T11:56:11.718Z,11.40
2018-03-07T11:58:40.604Z,11.10
2018-03-07T12:01:08.844Z,11.00
2018-03-07T12:03:37.083Z,10.90
2018-03-07T12:06:08.644Z,10.80
2018-03-07T12:08:38.390Z,10.70
2018-03-07T12:11:06.633Z,10.70
2018-03-07T12:13:35.608Z,10.60
2018-03-07T12:16:03.847Z,10.60
2018-03-07T12:18:32.852Z,10.50
2018-03-07T12:21:03.479Z,10.50
2018-03-07T12:23:31.725Z,10.50
2018-03-07T12:25:59.970Z,10.40
2018-03-07T12:28:29.925Z,10.40
2018-03-07T12:30:58.165Z,10.50
2018-03-07T12:33:27.540Z,10.50
2018-03-07T12:35:58.312Z,10.50
2018-03-07T12:38:26.552Z,10.60
2018-03-07T12:40:55.942Z,10.70
2018-03-07T12:43:25.472Z,10.70
2018-03-07T12:45:54.112Z,10.70
2018-03-07T12:50:52.628Z,10.90
2018-03-07T12:53:22.376Z,11.00
2018-03-07T12:55:50.616Z,11.00
2018-03-07T12:58:19.018Z,11.10
2018-03-07T13:00:47.256Z,11.10
2018-03-07T13:03:17.004Z,11.10
2018-03-07T13:05:46.152Z,11.00
2018-03-07T13:08:16.280Z,11.00
2018-03-07T13:10:45.284Z,11.10
2018-03-07T13:13:15.092Z,11.00
2018-03-07T13:15:43.332Z,11.10
2018-03-07T13:18:11.572Z,11.10
2018-03-07T13:23:10.369Z,11.20
2018-03-07T13:25:40.120Z,11.20
2018-03-07T13:28:10.289Z,11.10
2018-03-07T13:30:38.528Z,11.20
2018-03-07T13:33:06.776Z,11.20
2018-03-07T13:38:05.340Z,11.20
2018-03-07T13:40:33.581Z,11.30
2018-03-07T13:43:03.979Z,11.20
2018-03-07T13:45:32.612Z,11.30
2018-03-07T13:48:00.852Z,11.30
2018-03-07T13:50:33.398Z,11.30
2018-03-07T13:53:01.644Z,11.20
2018-03-07T13:55:29.883Z,11.20
2018-03-07T13:57:59.423Z,11.20
2018-03-07T14:00:28.416Z,11.30
2018-03-07T14:02:57.792Z,11.30
2018-03-07T14:05:26.109Z,11.30
2018-03-07T14:07:54.348Z,11.30
2018-03-07T14:10:23.037Z,11.30
2018-03-07T14:12:53.959Z,11.30
2018-03-07T14:15:22.192Z,11.30
2018-03-07T14:17:50.473Z,11.30
2018-03-07T14:20:19.759Z,11.30
2018-03-07T14:22:48.396Z,11.30
2018-03-07T14:25:16.637Z,11.10
2018-03-07T14:27:46.050Z,11.10
2018-03-07T14:30:14.632Z,11.10
2018-03-07T14:32:42.868Z,11.00
2018-03-07T14:35:11.540Z,11.00
2018-03-07T14:37:39.777Z,11.00
2018-03-07T14:40:08.017Z,11.00
2018-03-07T14:42:36.767Z,11.00
2018-03-07T14:45:05.410Z,11.00
2018-03-07T14:47:33.643Z,11.00
2018-03-07T14:50:03.401Z,11.00
2018-03-07T14:52:32.040Z,11.00
2018-03-07T14:55:00.280Z,11.00
2018-03-07T14:57:28.681Z,11.00
2018-03-07T14:59:56.927Z,10.90
2018-03-07T15:02:26.312Z,11.00
2018-03-07T15:04:55.529Z,11.00
2018-03-07T15:07:24.539Z,11.00
2018-03-07T15:09:52.778Z,11.00
2018-03-07T15:12:23.160Z,11.00
2018-03-07T15:14:51.405Z,11.00
2018-03-07T15:17:19.652Z,11.00
2018-03-07T15:22:19.230Z,11.00
2018-03-07T15:24:47.464Z,11.10
2018-03-07T15:27:16.136Z,11.10
2018-03-07T15:29:44.376Z,11.10
2018-03-07T15:32:12.611Z,11.00
2018-03-07T15:34:41.765Z,11.00
2018-03-07T15:37:10.780Z,11.00
2018-03-07T15:39:39.784Z,11.00
2018-03-07T15:42:09.477Z,11.00
2018-03-07T15:44:38.116Z,11.00
2018-03-07T15:47:06.353Z,11.00
2018-03-07T15:49:34.928Z,11.00
2018-03-07T15:52:03.156Z,11.00
2018-03-07T15:57:01.875Z,11.10
2018-03-07T15:59:31.628Z,11.10
2018-03-07T16:02:00.632Z,11.20
2018-03-07T16:04:29.949Z,11.10
2018-03-07T16:06:58.192Z,11.10
2018-03-07T16:09:27.185Z,11.20
2018-03-07T16:11:55.557Z,11.20
2018-03-07T16:14:27.435Z,11.20
2018-03-07T16:16:55.664Z,11.10
2018-03-07T16:19:24.949Z,11.10
2018-03-07T16:21:53.571Z,11.10
2018-03-07T16:24:21.796Z,11.10
2018-03-07T16:26:51.001Z,11.00
2018-03-07T16:29:19.952Z,11.00
2018-03-07T16:31:48.181Z,11.00
2018-03-07T16:34:16.544Z,11.00
2018-03-07T16:36:44.812Z,10.90
2018-03-07T16:39:13.438Z,11.00
2018-03-07T16:44:12.681Z,10.90
2018-03-07T16:49:11.909Z,10.80
2018-03-07T16:51:40.133Z,10.80
2018-03-07T16:54:09.131Z,10.80
2018-03-07T16:56:38.384Z,10.80
2018-03-07T16:59:07.401Z,10.70
2018-03-07T17:01:36.405Z,10.60
2018-03-07T17:04:07.264Z,10.60
2018-03-07T17:06:35.871Z,10.40
2018-03-07T17:09:04.505Z,10.30
2018-03-07T17:11:35.425Z,10.20
2018-03-07T17:14:04.053Z,10.00
2018-03-07T17:16:40.029Z,9.80
2018-03-07T17:21:38.210Z,9.50
2018-03-07T17:24:07.836Z,9.50
